Time;durP1;ratioP1;P1;durP2;ratioP2;P2;SDS_P1;SDS_P2;PMS_P1;PMS_P2;Temp;Humidity;BMP_temperature;BMP_pressure;BME280_temperature;BME280_humidity;BME280_pressure;Samples;Min_cycle;Max_cycle;Signal;HPM_P1;HPM_P2
2021/04/19 00:02:24;;;;;;;13.30;8.43;;;;;;;;;;4983073;28;20206;-69
2021/04/19 00:04:49;;;;;;;17.63;9.57;;;;;;;;;;4994484;28;20188;-69
2021/04/19 00:07:16;;;;;;;15.13;9.30;;;;;;;;;;4984343;28;20209;-69
2021/04/19 00:09:41;;;;;;;18.97;8.90;;;;;;;;;;4994167;28;20274;-69
2021/04/19 00:12:07;;;;;;;16.23;10.00;;;;;;;;;;4985404;28;20297;-69
2021/04/19 00:14:33;;;;;;;19.17;9.67;;;;;;;;;;4992430;28;20270;-69
2021/04/19 00:16:58;;;;;;;19.70;10.43;;;;;;;;;;4990717;28;20706;-68
2021/04/19 00:19:24;;;;;;;16.60;10.00;;;;;;;;;;4998859;28;20250;-70
2021/04/19 00:21:49;;;;;;;19.87;10.37;;;;;;;;;;4986756;28;20209;-69
2021/04/19 00:24:14;;;;;;;17.57;10.50;;;;;;;;;;4992820;28;20196;-69
2021/04/19 00:26:40;;;;;;;16.20;9.67;;;;;;;;;;4986580;28;20222;-68
2021/04/19 00:29:05;;;;;;;25.00;11.83;;;;;;;;;;4991240;28;20184;-69
2021/04/19 00:31:31;;;;;;;21.10;10.53;;;;;;;;;;4990882;28;20195;-70
2021/04/19 00:33:57;;;;;;;17.37;10.67;;;;;;;;;;4985150;28;20261;-69
2021/04/19 00:36:22;;;;;;;18.70;10.87;;;;;;;;;;4995908;28;20184;-69
2021/04/19 00:38:48;;;;;;;18.03;10.10;;;;;;;;;;4986891;28;20195;-69
2021/04/19 00:41:13;;;;;;;17.77;10.17;;;;;;;;;;4991948;28;20194;-69
2021/04/19 00:43:39;;;;;;;22.27;10.83;;;;;;;;;;4983118;28;20258;-68
2021/04/19 00:46:05;;;;;;;21.57;11.27;;;;;;;;;;5004280;28;20292;-68
2021/04/19 00:48:32;;;;;;;21.20;11.57;;;;;;;;;;4984657;28;20246;-69
2021/04/19 00:50:58;;;;;;;18.87;10.70;;;;;;;;;;4991919;28;20198;-69
2021/04/19 00:53:25;;;;;;;20.77;10.83;;;;;;;;;;4987966;28;20269;-69
2021/04/19 00:55:52;;;;;;;20.73;10.60;;;;;;;;;;5000569;28;20191;-69
2021/04/19 00:58:18;;;;;;;20.63;10.67;;;;;;;;;;4986329;28;20326;-69
2021/04/19 01:00:43;;;;;;;22.70;11.70;;;;;;;;;;4993867;28;20270;-69
2021/04/19 01:03:09;;;;;;;23.40;11.00;;;;;;;;;;5000846;28;20294;-69
2021/04/19 01:05:40;;;;;;;17.97;11.17;;;;;;;;;;4981672;28;20266;-69
2021/04/19 01:08:07;;;;;;;19.80;11.10;;;;;;;;;;4991918;28;20190;-69
2021/04/19 01:10:34;;;;;;;22.13;11.77;;;;;;;;;;4993653;28;20195;-69
2021/04/19 01:12:59;;;;;;;18.57;11.03;;;;;;;;;;4992754;28;20211;-69
2021/04/19 01:15:24;;;;;;;20.33;10.40;;;;;;;;;;4990854;28;20639;-69
2021/04/19 01:17:50;;;;;;;20.30;11.10;;;;;;;;;;4993272;28;20545;-69
2021/04/19 01:20:21;;;;;;;22.67;11.43;;;;;;;;;;4989247;28;20221;-69
2021/04/19 01:22:47;;;;;;;18.73;10.87;;;;;;;;;;4994100;28;20190;-69
2021/04/19 01:25:20;;;;;;;21.07;11.37;;;;;;;;;;4989127;28;20195;-69
2021/04/19 01:27:45;;;;;;;20.23;11.80;;;;;;;;;;5009454;28;20599;-69
2021/04/19 01:30:15;;;;;;;18.40;10.93;;;;;;;;;;4980962;28;20282;-69
2021/04/19 01:32:41;;;;;;;23.27;11.57;;;;;;;;;;4992045;28;20214;-69
2021/04/19 01:35:07;;;;;;;24.10;12.43;;;;;;;;;;4984686;28;20650;-69
2021/04/19 01:37:32;;;;;;;19.97;10.57;;;;;;;;;;4993586;28;20332;-69
2021/04/19 01:39:58;;;;;;;19.87;11.33;;;;;;;;;;4996799;28;20637;-69
2021/04/19 01:42:23;;;;;;;22.60;11.77;;;;;;;;;;4981787;28;20313;-69
2021/04/19 01:44:48;;;;;;;18.47;11.43;;;;;;;;;;5000253;28;20310;-69
2021/04/19 01:47:14;;;;;;;19.63;11.90;;;;;;;;;;4982912;28;20191;-69
2021/04/19 01:49:39;;;;;;;29.20;12.30;;;;;;;;;;5001565;28;20225;-69
2021/04/19 01:52:05;;;;;;;25.42;12.82;;;;;;;;;;4986596;28;20211;-69
2021/04/19 01:54:31;;;;;;;21.50;11.20;;;;;;;;;;4990106;28;20603;-69
2021/04/19 01:56:56;;;;;;;22.87;12.17;;;;;;;;;;4985708;28;20307;-69
2021/04/19 01:59:23;;;;;;;25.67;13.30;;;;;;;;;;4999612;28;20189;-69
2021/04/19 02:01:56;;;;;;;18.53;12.23;;;;;;;;;;4981867;28;20183;-68
2021/04/19 02:04:57;;;;;;;21.63;12.23;;;;;;;;;;4996276;28;20306;-69
2021/04/19 02:07:34;;;;;;;24.17;12.53;;;;;;;;;;4982336;28;20699;-68
2021/04/19 02:10:06;;;;;;;22.42;12.38;;;;;;;;;;4994524;28;20570;-69
2021/04/19 02:13:05;;;;;;;22.53;12.43;;;;;;;;;;4983720;28;20215;-68
2021/04/19 02:15:59;;;;;;;20.17;11.80;;;;;;;;;;4988881;28;20210;-69
2021/04/19 02:19:06;;;;;;;23.87;12.77;;;;;;;;;;4987681;28;20236;-69
2021/04/19 02:21:44;;;;;;;22.97;12.27;;;;;;;;;;4993315;28;20214;-69
2021/04/19 02:24:14;;;;;;;24.43;13.80;;;;;;;;;;4979956;28;20264;-69
2021/04/19 02:26:46;;;;;;;24.40;13.80;;;;;;;;;;4989970;28;20200;-69
2021/04/19 02:29:14;;;;;;;21.77;13.13;;;;;;;;;;4986572;28;20601;-69
2021/04/19 02:31:48;;;;;;;29.63;14.13;;;;;;;;;;4990440;28;20202;-69
2021/04/19 02:34:16;;;;;;;24.63;13.80;;;;;;;;;;4984135;28;20199;-69
2021/04/19 02:36:45;;;;;;;25.93;14.00;;;;;;;;;;4987910;28;20622;-69
2021/04/19 02:39:12;;;;;;;23.02;12.68;;;;;;;;;;4981986;28;20696;-69
2021/04/19 02:41:41;;;;;;;21.87;13.50;;;;;;;;;;4988119;28;20192;-69
2021/04/19 02:44:09;;;;;;;21.20;13.33;;;;;;;;;;4981504;28;20676;-69
2021/04/19 02:46:36;;;;;;;25.60;13.37;;;;;;;;;;4989284;28;20241;-70
2021/04/19 02:49:01;;;;;;;27.10;14.45;;;;;;;;;;4988394;28;20323;-68
2021/04/19 02:51:28;;;;;;;25.23;14.30;;;;;;;;;;4994936;28;20645;-69
2021/04/19 02:53:54;;;;;;;22.63;15.00;;;;;;;;;;4998381;28;20183;-69
2021/04/19 02:56:19;;;;;;;28.13;13.97;;;;;;;;;;4983637;28;20815;-70
2021/04/19 02:58:52;;;;;;;24.95;13.13;;;;;;;;;;4987818;28;20709;-70
2021/04/19 03:01:39;;;;;;;27.27;15.13;;;;;;;;;;4981311;28;20261;-70
2021/04/19 03:04:13;;;;;;;24.53;14.00;;;;;;;;;;4989155;28;20203;-70
2021/04/19 03:06:41;;;;;;;26.13;13.93;;;;;;;;;;4978315;28;20198;-70
2021/04/19 03:09:06;;;;;;;26.03;15.80;;;;;;;;;;4986522;28;20297;-70
2021/04/19 03:11:34;;;;;;;25.10;14.70;;;;;;;;;;4983662;28;20631;-70
2021/04/19 03:14:03;;;;;;;24.88;15.38;;;;;;;;;;4987735;28;20215;-69
2021/04/19 03:16:30;;;;;;;28.40;15.40;;;;;;;;;;4981820;28;20199;-69
2021/04/19 03:18:59;;;;;;;26.90;16.95;;;;;;;;;;4994825;28;20682;-69
2021/04/19 03:21:27;;;;;;;26.00;16.83;;;;;;;;;;4983484;28;20263;-69
2021/04/19 03:24:01;;;;;;;28.10;16.65;;;;;;;;;;4997159;28;20225;-69
2021/04/19 03:26:29;;;;;;;27.27;17.17;;;;;;;;;;4982040;28;20199;-69
2021/04/19 03:28:56;;;;;;;29.63;17.50;;;;;;;;;;4996425;28;20190;-70
2021/04/19 03:31:30;;;;;;;30.50;17.23;;;;;;;;;;4974480;28;20187;-69
2021/04/19 03:34:01;;;;;;;28.30;17.93;;;;;;;;;;4992888;28;20191;-70
2021/04/19 03:36:30;;;;;;;34.60;19.40;;;;;;;;;;4986010;28;20250;-70
2021/04/19 03:38:57;;;;;;;33.63;19.30;;;;;;;;;;4997016;28;20238;-70
2021/04/19 03:41:23;;;;;;;29.73;19.47;;;;;;;;;;4995976;28;20192;-70
2021/04/19 03:43:54;;;;;;;33.53;18.77;;;;;;;;;;4993535;28;20632;-70
2021/04/19 03:46:22;;;;;;;32.63;19.33;;;;;;;;;;4994289;28;21054;-70
2021/04/19 03:48:51;;;;;;;35.67;20.63;;;;;;;;;;4992401;28;20190;-70
2021/04/19 03:51:17;;;;;;;35.60;21.30;;;;;;;;;;4995564;28;20245;-69
2021/04/19 03:53:46;;;;;;;34.80;21.30;;;;;;;;;;4985506;28;20203;-69
2021/04/19 03:56:12;;;;;;;40.30;21.80;;;;;;;;;;4992003;28;20187;-68
2021/04/19 03:58:38;;;;;;;41.23;21.73;;;;;;;;;;4993824;28;20248;-68
2021/04/19 04:01:06;;;;;;;38.78;22.42;;;;;;;;;;5002860;28;20195;-69
2021/04/19 04:03:34;;;;;;;38.90;22.73;;;;;;;;;;4985451;28;20246;-68
2021/04/19 04:06:00;;;;;;;35.17;22.27;;;;;;;;;;4996180;28;20754;-68
2021/04/19 04:08:28;;;;;;;37.33;22.23;;;;;;;;;;4987727;28;20221;-68
2021/04/19 04:10:55;;;;;;;37.73;21.70;;;;;;;;;;4999398;28;20179;-68
2021/04/19 04:13:20;;;;;;;39.72;22.98;;;;;;;;;;4986774;28;23239;-68
2021/04/19 04:15:56;;;;;;;43.40;23.30;;;;;;;;;;4994890;28;20179;-69
2021/04/19 04:18:22;;;;;;;39.80;22.80;;;;;;;;;;4980738;28;20179;-69
2021/04/19 04:20:48;;;;;;;43.00;23.83;;;;;;;;;;4989757;28;20232;-69
2021/04/19 04:23:17;;;;;;;42.50;23.80;;;;;;;;;;5003735;28;20257;-69
2021/04/19 04:25:44;;;;;;;40.30;24.53;;;;;;;;;;4987210;28;20195;-69
2021/04/19 04:28:10;;;;;;;39.58;23.33;;;;;;;;;;5008204;28;20190;-69
2021/04/19 04:30:36;;;;;;;38.17;24.83;;;;;;;;;;4985029;28;20572;-69
2021/04/19 04:33:06;;;;;;;43.65;25.13;;;;;;;;;;5001204;28;20207;-69
2021/04/19 04:35:32;;;;;;;43.93;23.97;;;;;;;;;;4989205;28;20599;-69
2021/04/19 04:37:58;;;;;;;39.57;24.83;;;;;;;;;;4997474;28;20174;-69
2021/04/19 04:40:26;;;;;;;42.40;25.20;;;;;;;;;;4988400;28;20277;-69
2021/04/19 04:42:56;;;;;;;44.65;27.08;;;;;;;;;;4982876;28;20204;-69
2021/04/19 04:45:22;;;;;;;46.60;26.13;;;;;;;;;;4986223;28;20243;-69
2021/04/19 04:47:52;;;;;;;43.10;25.70;;;;;;;;;;5008872;28;20201;-69
2021/04/19 04:50:26;;;;;;;43.28;25.98;;;;;;;;;;4987038;28;20210;-69
2021/04/19 04:53:03;;;;;;;41.03;25.90;;;;;;;;;;4995107;28;20209;-68
2021/04/19 04:55:31;;;;;;;41.33;24.73;;;;;;;;;;4987732;28;20218;-69
2021/04/19 04:57:58;;;;;;;45.80;26.50;;;;;;;;;;4990963;28;20501;-68
2021/04/19 05:00:23;;;;;;;44.83;25.67;;;;;;;;;;4986266;28;20201;-69
2021/04/19 05:02:50;;;;;;;46.13;26.00;;;;;;;;;;4994496;28;20198;-69
2021/04/19 05:05:16;;;;;;;45.13;26.03;;;;;;;;;;4994764;28;20195;-69
2021/04/19 05:07:43;;;;;;;42.30;26.83;;;;;;;;;;4987541;28;20253;-69
2021/04/19 05:10:09;;;;;;;47.50;27.73;;;;;;;;;;4995931;28;20214;-69
2021/04/19 05:12:36;;;;;;;47.90;27.37;;;;;;;;;;4983304;28;20211;-69
2021/04/19 05:15:09;;;;;;;52.43;27.83;;;;;;;;;;4995956;28;20286;-69
2021/04/19 05:17:35;;;;;;;44.10;27.03;;;;;;;;;;4981766;28;20654;-68
2021/04/19 05:20:00;;;;;;;42.17;27.37;;;;;;;;;;4989723;28;20195;-69
2021/04/19 05:22:25;;;;;;;45.97;28.10;;;;;;;;;;4983436;28;20214;-69
2021/04/19 05:24:51;;;;;;;45.28;27.65;;;;;;;;;;4990154;28;20234;-69
2021/04/19 05:27:17;;;;;;;48.50;26.98;;;;;;;;;;4985965;28;20215;-69
2021/04/19 05:29:43;;;;;;;44.25;27.75;;;;;;;;;;4999724;28;20201;-69
2021/04/19 05:32:10;;;;;;;43.10;27.67;;;;;;;;;;4982320;28;20203;-69
2021/04/19 05:34:36;;;;;;;51.10;29.38;;;;;;;;;;4993171;28;20678;-68
2021/04/19 05:37:03;;;;;;;48.22;29.50;;;;;;;;;;4987249;28;20709;-68
2021/04/19 05:39:31;;;;;;;47.95;30.42;;;;;;;;;;5009096;28;20627;-70
2021/04/19 05:41:57;;;;;;;50.50;30.00;;;;;;;;;;4991295;28;20598;-69
2021/04/19 05:44:25;;;;;;;51.92;30.55;;;;;;;;;;4981900;28;20308;-69
2021/04/19 05:46:50;;;;;;;52.80;29.90;;;;;;;;;;4989564;28;20182;-69
2021/04/19 05:49:15;;;;;;;49.20;30.93;;;;;;;;;;4978421;28;20187;-68
2021/04/19 05:51:43;;;;;;;48.80;30.83;;;;;;;;;;4988171;28;20757;-69
2021/04/19 05:54:10;;;;;;;54.95;31.15;;;;;;;;;;4981367;28;20238;-68
2021/04/19 05:56:35;;;;;;;49.25;31.48;;;;;;;;;;4995438;28;20207;-69
2021/04/19 05:59:18;;;;;;;57.28;32.75;;;;;;;;;;4985677;28;20682;-70
2021/04/19 06:01:48;;;;;;;67.78;34.85;;;;;;;;;;4992853;28;20188;-70
2021/04/19 06:04:53;;;;;;;69.72;35.85;;;;;;;;;;4983882;28;20199;-70
2021/04/19 06:07:27;;;;;;;72.63;36.53;;;;;;;;;;4969563;28;20202;-69
2021/04/19 06:10:10;;;;;;;64.78;36.83;;;;;;;;;;4981809;28;20187;-69
2021/04/19 06:12:40;;;;;;;73.10;38.10;;;;;;;;;;4988585;28;20635;-69
2021/04/19 06:15:10;;;;;;;71.57;38.33;;;;;;;;;;4984147;28;20195;-69
2021/04/19 06:17:36;;;;;;;74.00;38.53;;;;;;;;;;4989013;28;20191;-69
2021/04/19 06:20:02;;;;;;;71.75;36.60;;;;;;;;;;4982963;28;20201;-69
2021/04/19 06:22:28;;;;;;;65.05;35.42;;;;;;;;;;4992351;28;20172;-69
2021/04/19 06:24:54;;;;;;;72.13;38.33;;;;;;;;;;4977558;28;20297;-69
2021/04/19 06:27:23;;;;;;;68.28;37.75;;;;;;;;;;4989643;28;20674;-70
2021/04/19 06:29:49;;;;;;;67.85;36.47;;;;;;;;;;4983302;28;20242;-70
2021/04/19 06:32:17;;;;;;;69.45;37.25;;;;;;;;;;4983961;28;20207;-70
2021/04/19 06:34:42;;;;;;;64.85;36.38;;;;;;;;;;4987852;28;20266;-69
2021/04/19 06:37:08;;;;;;;61.28;35.25;;;;;;;;;;4982713;28;20829;-70
2021/04/19 06:39:34;;;;;;;46.58;31.85;;;;;;;;;;4993405;28;20199;-70
2021/04/19 06:42:02;;;;;;;57.47;33.38;;;;;;;;;;4985598;28;20695;-69
2021/04/19 06:44:28;;;;;;;54.13;32.50;;;;;;;;;;4990287;28;20218;-69
2021/04/19 06:46:55;;;;;;;51.58;30.63;;;;;;;;;;4987015;28;20270;-69
2021/04/19 06:49:20;;;;;;;47.00;29.60;;;;;;;;;;4998407;28;20191;-69
2021/04/19 06:51:47;;;;;;;47.42;29.92;;;;;;;;;;4989586;28;20218;-69
2021/04/19 06:54:12;;;;;;;45.47;29.30;;;;;;;;;;4990230;28;20198;-69
2021/04/19 06:56:40;;;;;;;38.90;25.80;;;;;;;;;;4985947;28;20195;-70
2021/04/19 06:59:10;;;;;;;42.95;25.20;;;;;;;;;;4995345;28;20226;-70
2021/04/19 07:01:37;;;;;;;38.55;24.05;;;;;;;;;;4984468;28;20187;-69
2021/04/19 07:04:05;;;;;;;33.40;23.65;;;;;;;;;;4996276;28;20286;-69
2021/04/19 07:06:33;;;;;;;32.35;21.55;;;;;;;;;;5008470;28;20187;-70
2021/04/19 07:09:16;;;;;;;34.05;21.85;;;;;;;;;;4986378;28;20538;-70
2021/04/19 07:11:43;;;;;;;29.45;21.33;;;;;;;;;;4993425;28;20190;-70
2021/04/19 07:14:10;;;;;;;35.83;22.33;;;;;;;;;;4985708;28;20657;-69
2021/04/19 07:16:36;;;;;;;32.45;21.35;;;;;;;;;;4993278;28;20191;-70
2021/04/19 07:19:02;;;;;;;25.52;19.13;;;;;;;;;;4986187;28;20191;-70
2021/04/19 07:21:28;;;;;;;25.98;18.55;;;;;;;;;;4993120;28;20646;-69
2021/04/19 07:23:54;;;;;;;28.60;19.60;;;;;;;;;;4987735;28;20190;-69
2021/04/19 07:26:20;;;;;;;23.60;17.52;;;;;;;;;;4991889;28;20210;-69
2021/04/19 07:28:45;;;;;;;25.63;18.65;;;;;;;;;;4980074;28;20222;-70
2021/04/19 07:31:11;;;;;;;24.80;18.17;;;;;;;;;;4990317;28;20183;-70
2021/04/19 07:33:38;;;;;;;24.90;16.95;;;;;;;;;;4983744;28;20215;-70
2021/04/19 07:36:25;;;;;;;24.13;17.67;;;;;;;;;;4988594;28;20192;-70
2021/04/19 07:38:52;;;;;;;22.90;17.05;;;;;;;;;;4981307;28;20644;-69
2021/04/19 07:41:18;;;;;;;23.23;16.52;;;;;;;;;;4990875;28;20557;-69
2021/04/19 07:43:45;;;;;;;20.50;16.08;;;;;;;;;;4986163;28;20306;-69
2021/04/19 07:46:17;;;;;;;21.65;16.20;;;;;;;;;;4989758;28;20211;-70
2021/04/19 07:48:45;;;;;;;22.90;17.60;;;;;;;;;;4986446;28;20192;-70
2021/04/19 07:51:34;;;;;;;22.13;17.02;;;;;;;;;;4983843;28;20245;-69
2021/04/19 07:54:11;;;;;;;24.42;17.55;;;;;;;;;;4990428;28;20215;-70
2021/04/19 07:56:41;;;;;;;20.95;16.40;;;;;;;;;;4992468;28;20190;-70
2021/04/19 07:59:23;;;;;;;24.27;16.08;;;;;;;;;;4994047;28;20198;-70
2021/04/19 08:02:16;;;;;;;20.20;14.80;;;;;;;;;;4988906;28;20655;-69
2021/04/19 08:04:48;;;;;;;18.17;14.15;;;;;;;;;;4983915;28;20611;-69
2021/04/19 08:07:22;;;;;;;23.85;15.35;;;;;;;;;;5000750;28;20638;-69
2021/04/19 08:09:57;;;;;;;18.85;14.60;;;;;;;;;;4991471;28;20221;-70
2021/04/19 08:12:32;;;;;;;20.30;14.48;;;;;;;;;;4999530;28;20733;-70
2021/04/19 08:14:58;;;;;;;17.95;14.55;;;;;;;;;;4989530;28;20543;-70
2021/04/19 08:17:31;;;;;;;17.17;13.95;;;;;;;;;;4986318;28;20664;-70
2021/04/19 08:19:56;;;;;;;18.05;13.15;;;;;;;;;;4993719;28;20283;-69
2021/04/19 08:22:25;;;;;;;14.57;11.73;;;;;;;;;;4986374;28;20266;-69
2021/04/19 08:25:09;;;;;;;11.70;9.85;;;;;;;;;;4995859;28;20591;-69
2021/04/19 08:27:35;;;;;;;10.32;9.15;;;;;;;;;;5004649;28;20215;-69
2021/04/19 08:30:00;;;;;;;12.32;9.50;;;;;;;;;;4994676;28;20241;-69
2021/04/19 08:32:29;;;;;;;10.00;8.63;;;;;;;;;;4983867;28;20206;-70
2021/04/19 08:34:55;;;;;;;11.75;9.55;;;;;;;;;;4993102;28;20221;-69
2021/04/19 08:37:26;;;;;;;9.85;8.45;;;;;;;;;;4982939;28;20184;-70
2021/04/19 08:39:52;;;;;;;10.68;8.73;;;;;;;;;;4994701;28;20233;-70
2021/04/19 08:42:18;;;;;;;11.35;8.90;;;;;;;;;;4988448;28;20211;-69
2021/04/19 08:44:44;;;;;;;9.35;7.97;;;;;;;;;;4993909;28;20643;-69
2021/04/19 08:47:14;;;;;;;11.05;8.65;;;;;;;;;;4985567;28;20219;-69
2021/04/19 08:49:39;;;;;;;11.38;8.65;;;;;;;;;;4993719;28;20195;-69
2021/04/19 08:52:05;;;;;;;9.40;8.07;;;;;;;;;;4984233;28;20701;-69
2021/04/19 08:54:31;;;;;;;10.13;8.02;;;;;;;;;;4996762;28;20664;-70
2021/04/19 08:56:56;;;;;;;10.60;8.48;;;;;;;;;;4994315;28;20183;-69
2021/04/19 08:59:23;;;;;;;10.63;8.68;;;;;;;;;;4984673;28;20554;-69
2021/04/19 09:01:51;;;;;;;8.80;7.90;;;;;;;;;;4995559;28;20187;-69
2021/04/19 09:04:21;;;;;;;9.45;8.00;;;;;;;;;;4983682;28;20206;-69
2021/04/19 09:06:49;;;;;;;10.27;8.25;;;;;;;;;;4995741;28;20194;-69
2021/04/19 09:09:33;;;;;;;10.07;8.40;;;;;;;;;;4985300;28;20269;-69
2021/04/19 09:12:18;;;;;;;10.57;8.90;;;;;;;;;;4994447;28;20242;-70
2021/04/19 09:14:44;;;;;;;9.27;8.15;;;;;;;;;;4991083;28;21203;-68
2021/04/19 09:17:09;;;;;;;10.43;8.65;;;;;;;;;;4996627;28;20203;-69
2021/04/19 09:19:36;;;;;;;12.00;9.23;;;;;;;;;;4985139;28;20598;-69
2021/04/19 09:22:13;;;;;;;10.43;8.88;;;;;;;;;;4995604;28;20175;-70
2021/04/19 09:25:05;;;;;;;11.38;9.23;;;;;;;;;;4987239;28;20213;-69
2021/04/19 09:27:45;;;;;;;13.02;9.70;;;;;;;;;;4994718;28;20190;-69
2021/04/19 09:30:14;;;;;;;12.27;10.32;;;;;;;;;;4986443;28;20186;-69
2021/04/19 09:32:39;;;;;;;11.57;9.32;;;;;;;;;;4993432;28;20263;-69
2021/04/19 09:35:05;;;;;;;12.43;10.00;;;;;;;;;;4984469;28;20585;-69
2021/04/19 09:37:36;;;;;;;13.05;10.73;;;;;;;;;;4989203;28;20199;-70
2021/04/19 09:40:05;;;;;;;13.13;10.98;;;;;;;;;;4982636;28;20619;-69
2021/04/19 09:43:04;;;;;;;13.18;10.68;;;;;;;;;;4993928;28;20183;-69
2021/04/19 09:45:41;;;;;;;13.68;10.93;;;;;;;;;;4986598;28;20223;-69
2021/04/19 09:48:07;;;;;;;15.27;11.88;;;;;;;;;;4991095;28;20193;-70
2021/04/19 09:50:33;;;;;;;17.33;11.70;;;;;;;;;;4984532;28;20191;-70
2021/04/19 09:52:59;;;;;;;13.57;11.30;;;;;;;;;;5000273;28;20286;-70
2021/04/19 09:55:24;;;;;;;16.73;13.57;;;;;;;;;;4980169;28;20647;-70
2021/04/19 09:57:51;;;;;;;15.18;12.23;;;;;;;;;;4994913;28;20191;-70
2021/04/19 10:00:17;;;;;;;14.93;11.88;;;;;;;;;;4993025;28;20179;-70
2021/04/19 10:02:43;;;;;;;14.95;11.70;;;;;;;;;;4987519;28;20215;-70
2021/04/19 10:05:14;;;;;;;16.25;12.27;;;;;;;;;;4992898;28;20213;-69
2021/04/19 10:07:44;;;;;;;14.38;12.00;;;;;;;;;;4985064;28;20195;-69
2021/04/19 10:10:11;;;;;;;13.80;12.20;;;;;;;;;;4993197;28;20326;-69
2021/04/19 10:12:44;;;;;;;14.98;12.27;;;;;;;;;;4988258;28;20207;-70
2021/04/19 10:15:30;;;;;;;13.50;11.50;;;;;;;;;;4991765;28;20171;-70
2021/04/19 10:17:55;;;;;;;13.80;11.75;;;;;;;;;;4986232;28;20285;-69
2021/04/19 10:20:27;;;;;;;13.38;11.43;;;;;;;;;;4990135;28;20273;-69
2021/04/19 10:23:08;;;;;;;15.70;11.95;;;;;;;;;;4986906;28;20377;-70
2021/04/19 10:25:43;;;;;;;14.65;11.88;;;;;;;;;;4988016;28;20585;-69
2021/04/19 10:28:08;;;;;;;14.90;11.90;;;;;;;;;;4983152;28;20209;-69
2021/04/19 10:30:34;;;;;;;12.77;11.25;;;;;;;;;;4996190;28;20186;-69
2021/04/19 10:32:59;;;;;;;15.77;11.80;;;;;;;;;;4979180;28;20322;-69
2021/04/19 10:35:39;;;;;;;16.20;12.40;;;;;;;;;;4991614;28;20187;-69
2021/04/19 10:38:05;;;;;;;16.42;12.85;;;;;;;;;;4980463;28;20191;-69
2021/04/19 10:40:30;;;;;;;15.55;12.57;;;;;;;;;;4989371;28;20189;-69
2021/04/19 10:43:12;;;;;;;20.23;13.20;;;;;;;;;;4979775;28;20206;-69
2021/04/19 10:45:42;;;;;;;14.93;12.10;;;;;;;;;;4988645;28;20211;-69
2021/04/19 10:48:15;;;;;;;14.30;12.00;;;;;;;;;;4981462;28;20191;-69
2021/04/19 10:50:40;;;;;;;13.45;11.13;;;;;;;;;;4993395;28;20610;-69
2021/04/19 10:53:06;;;;;;;12.65;10.90;;;;;;;;;;4981468;28;20780;-69
2021/04/19 10:55:31;;;;;;;13.35;10.27;;;;;;;;;;4992674;28;20196;-69
2021/04/19 10:57:57;;;;;;;13.82;10.85;;;;;;;;;;4989754;28;20247;-70
2021/04/19 11:00:22;;;;;;;13.27;11.18;;;;;;;;;;4982037;28;20254;-69
2021/04/19 11:02:52;;;;;;;12.38;10.60;;;;;;;;;;4987490;28;20267;-69
2021/04/19 11:05:18;;;;;;;10.68;8.98;;;;;;;;;;4984587;28;20282;-69
2021/04/19 11:07:45;;;;;;;11.75;9.60;;;;;;;;;;4992662;28;20709;-69
2021/04/19 11:10:16;;;;;;;13.60;10.02;;;;;;;;;;4984958;28;20580;-69
2021/04/19 11:13:03;;;;;;;13.30;8.80;;;;;;;;;;4993473;28;20554;-69
2021/04/19 11:15:33;;;;;;;12.40;9.85;;;;;;;;;;4985688;28;20186;-69
2021/04/19 11:18:00;;;;;;;12.27;9.88;;;;;;;;;;4991290;28;20670;-70
2021/04/19 11:20:31;;;;;;;12.52;10.48;;;;;;;;;;4983864;28;20211;-70
2021/04/19 11:23:00;;;;;;;13.10;10.48;;;;;;;;;;5007561;28;20273;-70
2021/04/19 11:25:28;;;;;;;13.40;11.45;;;;;;;;;;4984088;28;20201;-70
2021/04/19 11:28:14;;;;;;;13.93;12.38;;;;;;;;;;4991948;28;20190;-70
2021/04/19 11:30:40;;;;;;;15.63;12.05;;;;;;;;;;4987253;28;20194;-70
2021/04/19 11:33:05;;;;;;;13.45;11.95;;;;;;;;;;4990597;28;20219;-70
2021/04/19 11:35:42;;;;;;;13.70;11.80;;;;;;;;;;4987505;28;20547;-70
2021/04/19 11:38:17;;;;;;;16.05;13.05;;;;;;;;;;4997887;28;20266;-70
2021/04/19 11:40:45;;;;;;;15.73;12.35;;;;;;;;;;4987289;28;20194;-70
2021/04/19 11:43:18;;;;;;;15.88;12.32;;;;;;;;;;4995315;28;20183;-70
2021/04/19 11:45:43;;;;;;;14.90;11.90;;;;;;;;;;4988481;28;20184;-70
2021/04/19 11:48:12;;;;;;;15.15;11.80;;;;;;;;;;4994252;28;20203;-70
2021/04/19 11:50:42;;;;;;;15.43;11.52;;;;;;;;;;4992255;28;20179;-70
2021/04/19 11:53:07;;;;;;;14.60;11.27;;;;;;;;;;4982629;28;20215;-70
2021/04/19 11:55:33;;;;;;;15.52;12.20;;;;;;;;;;4995736;28;20194;-70
2021/04/19 11:57:59;;;;;;;14.35;11.60;;;;;;;;;;4984382;28;20638;-70
2021/04/19 12:00:26;;;;;;;16.00;11.20;;;;;;;;;;4994381;28;20219;-70
2021/04/19 12:02:51;;;;;;;13.50;10.88;;;;;;;;;;4985082;28;20218;-70
2021/04/19 12:05:16;;;;;;;12.63;11.00;;;;;;;;;;4993354;28;20558;-70
2021/04/19 12:07:42;;;;;;;13.60;10.63;;;;;;;;;;4984841;28;20909;-70
2021/04/19 12:10:08;;;;;;;15.63;11.45;;;;;;;;;;4991491;28;20179;-70
2021/04/19 12:12:33;;;;;;;13.27;10.60;;;;;;;;;;4984680;28;20210;-71
2021/04/19 12:14:58;;;;;;;12.45;10.98;;;;;;;;;;4992413;28;20186;-71
2021/04/19 12:17:24;;;;;;;14.25;10.93;;;;;;;;;;4982808;28;20611;-70
2021/04/19 12:19:49;;;;;;;15.23;11.52;;;;;;;;;;4998848;28;20262;-70
2021/04/19 12:22:14;;;;;;;13.50;10.73;;;;;;;;;;4993304;28;20225;-70
2021/04/19 12:24:40;;;;;;;14.57;10.63;;;;;;;;;;4985605;28;20187;-70
2021/04/19 12:27:05;;;;;;;17.20;10.73;;;;;;;;;;4992963;28;20222;-70
2021/04/19 12:29:31;;;;;;;15.60;9.95;;;;;;;;;;4985125;28;20674;-70
2021/04/19 12:31:56;;;;;;;12.00;9.80;;;;;;;;;;4306754;28;10000741;-70
2021/04/19 12:34:22;;;;;;;12.15;10.35;;;;;;;;;;4982327;28;20196;-70
2021/04/19 12:36:50;;;;;;;13.80;10.35;;;;;;;;;;4993082;28;20191;-69
2021/04/19 12:39:16;;;;;;;12.40;10.07;;;;;;;;;;4983799;28;20613;-70
2021/04/19 12:41:41;;;;;;;13.90;11.20;;;;;;;;;;4994060;28;20221;-70
2021/04/19 12:44:06;;;;;;;13.40;11.23;;;;;;;;;;4979925;28;20230;-69
2021/04/19 12:46:32;;;;;;;13.35;10.65;;;;;;;;;;4992633;28;20195;-70
2021/04/19 12:48:57;;;;;;;11.80;10.27;;;;;;;;;;4982417;28;20191;-70
2021/04/19 12:51:24;;;;;;;12.85;10.13;;;;;;;;;;4990746;28;20202;-69
2021/04/19 12:53:49;;;;;;;13.05;10.15;;;;;;;;;;4991011;28;20222;-70
2021/04/19 12:56:15;;;;;;;14.65;10.85;;;;;;;;;;4983797;28;20218;-69
2021/04/19 12:58:42;;;;;;;12.02;9.10;;;;;;;;;;4994335;28;20217;-69
2021/04/19 13:01:08;;;;;;;13.43;10.02;;;;;;;;;;4983615;28;20223;-70
2021/04/19 13:03:34;;;;;;;13.88;10.00;;;;;;;;;;4991404;28;20706;-70
2021/04/19 13:05:59;;;;;;;12.88;10.20;;;;;;;;;;4975191;28;20234;-70
2021/04/19 13:08:24;;;;;;;11.80;9.65;;;;;;;;;;4988044;28;20699;-70
2021/04/19 13:10:50;;;;;;;13.50;10.65;;;;;;;;;;4989333;28;20191;-71
2021/04/19 13:13:15;;;;;;;14.63;10.73;;;;;;;;;;4987560;28;20288;-70
2021/04/19 13:15:41;;;;;;;13.63;10.77;;;;;;;;;;4988639;28;20175;-71
2021/04/19 13:18:06;;;;;;;11.55;9.98;;;;;;;;;;4997472;28;20221;-70
2021/04/19 13:20:32;;;;;;;14.32;10.75;;;;;;;;;;4993362;28;20201;-70
2021/04/19 13:22:58;;;;;;;13.65;11.05;;;;;;;;;;4983377;28;20209;-70
2021/04/19 13:25:23;;;;;;;14.98;11.20;;;;;;;;;;4999318;28;20184;-70
2021/04/19 13:27:49;;;;;;;18.50;11.30;;;;;;;;;;4982588;28;20230;-69
2021/04/19 13:30:15;;;;;;;22.50;12.80;;;;;;;;;;4987827;28;20702;-69
2021/04/19 13:32:41;;;;;;;14.23;11.80;;;;;;;;;;4980593;28;20230;-69
2021/04/19 13:35:08;;;;;;;13.02;11.23;;;;;;;;;;4989090;28;20184;-70
2021/04/19 13:37:34;;;;;;;16.63;11.48;;;;;;;;;;4982236;28;20206;-70
2021/04/19 13:39:59;;;;;;;13.93;10.90;;;;;;;;;;4990006;28;20534;-70
2021/04/19 13:42:25;;;;;;;12.52;10.93;;;;;;;;;;4980862;28;20179;-68
2021/04/19 13:44:50;;;;;;;12.80;10.27;;;;;;;;;;4990246;28;20223;-69
2021/04/19 13:47:15;;;;;;;14.50;11.15;;;;;;;;;;4983515;28;20199;-69
2021/04/19 13:49:41;;;;;;;14.90;11.25;;;;;;;;;;4992468;28;20598;-69
2021/04/19 13:52:06;;;;;;;12.38;10.63;;;;;;;;;;4990353;28;20201;-69
2021/04/19 13:54:32;;;;;;;13.05;10.20;;;;;;;;;;4990520;28;20311;-69
2021/04/19 13:56:58;;;;;;;12.32;10.68;;;;;;;;;;4989429;28;20286;-69
2021/04/19 13:59:23;;;;;;;15.45;10.73;;;;;;;;;;4981771;28;20616;-70
2021/04/19 14:01:49;;;;;;;13.93;9.90;;;;;;;;;;4989683;28;20194;-71
2021/04/19 14:04:14;;;;;;;13.57;10.27;;;;;;;;;;4976998;28;20211;-70
2021/04/19 14:06:39;;;;;;;14.80;10.95;;;;;;;;;;4992384;28;20221;-70
2021/04/19 14:09:05;;;;;;;13.30;10.70;;;;;;;;;;4982831;28;20194;-70
2021/04/19 14:11:30;;;;;;;12.60;10.05;;;;;;;;;;4986768;28;20183;-70
2021/04/19 14:13:55;;;;;;;13.57;10.65;;;;;;;;;;4985683;28;20210;-70
2021/04/19 14:16:21;;;;;;;14.13;10.55;;;;;;;;;;4990125;28;20191;-70
2021/04/19 14:18:46;;;;;;;12.68;10.07;;;;;;;;;;4981195;28;20182;-70
2021/04/19 14:21:11;;;;;;;12.77;10.02;;;;;;;;;;4991548;28;20796;-71
2021/04/19 14:23:37;;;;;;;13.32;10.68;;;;;;;;;;4991856;28;20628;-70
2021/04/19 14:26:07;;;;;;;13.43;10.23;;;;;;;;;;4978815;28;20202;-71
2021/04/19 14:28:36;;;;;;;12.35;10.60;;;;;;;;;;4992581;28;20941;-70